createdAt,value
2018-06-27T00:00:23.530Z,16.60
2018-06-27T00:03:04.097Z,16.60
2018-06-27T00:05:32.277Z,16.50
2018-06-27T00:08:13.096Z,16.40
2018-06-27T00:10:53.277Z,16.40
2018-06-27T00:13:33.805Z,16.40
2018-06-27T00:16:14.370Z,16.40
2018-06-27T00:18:42.564Z,16.30
2018-06-27T00:21:22.625Z,16.30
2018-06-27T00:24:03.374Z,16.20
2018-06-27T00:26:44.017Z,16.20
2018-06-27T00:29:24.586Z,16.10
2018-06-27T00:31:53.806Z,16.20
2018-06-27T00:34:22.106Z,16.10
2018-06-27T00:37:02.601Z,16.10
2018-06-27T00:39:43.170Z,16.10
2018-06-27T00:42:11.405Z,16.10
2018-06-27T00:44:44.326Z,16.10
2018-06-27T00:47:25.440Z,16.10
2018-06-27T00:50:06.208Z,16.10
2018-06-27T00:52:46.986Z,16.20
2018-06-27T00:55:17.270Z,16.30
2018-06-27T00:57:45.521Z,16.40
2018-06-27T01:00:13.680Z,16.30
2018-06-27T01:02:41.894Z,16.20
2018-06-27T01:05:22.403Z,16.20
2018-06-27T01:08:02.963Z,16.00
2018-06-27T01:10:43.625Z,16.00
2018-06-27T01:13:13.880Z,15.90
2018-06-27T01:15:54.875Z,15.90
2018-06-27T01:18:35.548Z,15.90
2018-06-27T01:21:16.086Z,15.80
2018-06-27T01:23:56.686Z,15.80
2018-06-27T01:26:29.033Z,15.70
2018-06-27T01:29:10.070Z,15.70
2018-06-27T01:31:38.273Z,15.60
2018-06-27T01:34:06.467Z,15.60
2018-06-27T01:36:34.650Z,15.60
2018-06-27T01:39:10.233Z,15.70
2018-06-27T01:41:50.845Z,15.70
2018-06-27T01:44:19.542Z,15.60
2018-06-27T01:46:50.163Z,15.60
2018-06-27T01:49:19.003Z,15.70
2018-06-27T01:51:47.221Z,15.70
2018-06-27T01:54:15.411Z,15.80
2018-06-27T01:56:43.642Z,15.70
2018-06-27T01:59:24.529Z,15.70
2018-06-27T02:01:52.740Z,15.70
2018-06-27T02:04:20.925Z,15.70
2018-06-27T02:06:49.106Z,15.70
2018-06-27T02:09:29.553Z,15.70
2018-06-27T02:11:57.709Z,15.70
2018-06-27T02:14:25.913Z,15.70
2018-06-27T02:16:54.099Z,15.60
2018-06-27T02:19:22.252Z,15.60
2018-06-27T02:21:50.985Z,15.50
2018-06-27T02:24:19.175Z,15.60
2018-06-27T02:26:47.350Z,15.70
2018-06-27T02:29:16.302Z,15.70
2018-06-27T02:31:46.318Z,15.60
2018-06-27T02:34:14.506Z,15.60
2018-06-27T02:36:42.666Z,15.70
2018-06-27T02:39:12.611Z,15.80
2018-06-27T02:41:42.509Z,15.80
2018-06-27T02:44:23.062Z,15.80
2018-06-27T02:49:37.356Z,16.00
2018-06-27T02:52:05.549Z,16.10
2018-06-27T02:54:33.770Z,16.10
2018-06-27T02:59:30.060Z,15.90
2018-06-27T03:01:58.281Z,15.90
2018-06-27T03:04:28.293Z,15.80
2018-06-27T03:06:56.535Z,15.80
2018-06-27T03:09:25.105Z,15.90
2018-06-27T03:12:06.052Z,15.90
2018-06-27T03:14:46.748Z,15.80
2018-06-27T03:17:15.082Z,15.80
2018-06-27T03:19:56.091Z,15.80
2018-06-27T03:22:36.627Z,15.80
2018-06-27T03:27:44.860Z,15.90
2018-06-27T03:30:25.404Z,15.90
2018-06-27T03:33:06.082Z,16.00
2018-06-27T03:35:46.618Z,16.10
2018-06-27T03:38:27.306Z,16.00
2018-06-27T03:43:29.716Z,15.90
2018-06-27T03:46:10.336Z,16.00
2018-06-27T03:48:40.156Z,16.10
2018-06-27T03:51:20.693Z,15.90
2018-06-27T03:53:54.207Z,15.80
2018-06-27T03:56:35.239Z,15.90
2018-06-27T03:59:15.712Z,15.90
2018-06-27T04:01:56.405Z,15.90
2018-06-27T04:04:27.701Z,15.90
2018-06-27T04:06:55.878Z,16.10
2018-06-27T04:09:36.576Z,16.10
2018-06-27T04:12:04.763Z,16.10
2018-06-27T04:14:34.726Z,16.10
2018-06-27T04:17:06.480Z,16.20
2018-06-27T04:19:46.706Z,16.30
2018-06-27T04:22:26.219Z,16.30
2018-06-27T04:25:07.134Z,16.40
2018-06-27T04:27:47.685Z,16.30
2018-06-27T04:30:16.945Z,16.30
2018-06-27T04:32:45.186Z,16.40
2018-06-27T04:35:13.432Z,16.50
2018-06-27T04:37:41.590Z,16.60
2018-06-27T04:40:09.828Z,16.60
2018-06-27T04:42:38.043Z,16.60
2018-06-27T04:45:18.906Z,16.70
2018-06-27T04:47:59.613Z,16.70
2018-06-27T04:50:40.141Z,16.60
2018-06-27T04:53:10.352Z,16.70
2018-06-27T04:55:51.461Z,16.70
2018-06-27T04:58:19.737Z,16.80
2018-06-27T05:01:00.752Z,16.80
2018-06-27T05:03:41.154Z,16.90
2018-06-27T05:06:21.938Z,16.90
2018-06-27T05:09:02.346Z,17.00
2018-06-27T05:11:30.807Z,17.20
2018-06-27T05:14:11.636Z,17.70
2018-06-27T05:16:52.172Z,18.30
2018-06-27T05:19:32.817Z,18.80
2018-06-27T05:22:02.478Z,18.80
2018-06-27T05:24:43.891Z,18.70
2018-06-27T05:27:24.088Z,18.60
2018-06-27T05:30:04.817Z,18.40
2018-06-27T05:32:45.490Z,18.10
2018-06-27T05:35:26.116Z,17.90
2018-06-27T05:38:06.660Z,17.80
2018-06-27T05:40:47.238Z,17.80
2018-06-27T05:43:15.514Z,17.90
2018-06-27T05:45:55.647Z,17.90
2018-06-27T05:48:36.331Z,17.80
2018-06-27T05:51:16.864Z,17.80
2018-06-27T05:53:57.495Z,17.70
2018-06-27T05:56:38.368Z,17.80
2018-06-27T05:59:09.134Z,17.80
2018-06-27T06:01:49.467Z,17.90
2018-06-27T06:04:31.124Z,17.90
2018-06-27T06:06:59.388Z,18.00
2018-06-27T06:09:39.776Z,18.10
2018-06-27T06:12:07.984Z,18.20
2018-06-27T06:14:48.280Z,18.10
2018-06-27T06:17:28.823Z,18.10
2018-06-27T06:19:56.998Z,18.10
2018-06-27T06:22:37.969Z,18.10
2018-06-27T06:25:18.560Z,18.20
2018-06-27T06:27:46.744Z,18.20
2018-06-27T06:30:27.046Z,18.30
2018-06-27T06:33:07.654Z,18.40
2018-06-27T06:35:48.432Z,18.60
2018-06-27T06:38:29.060Z,18.70
2018-06-27T06:41:02.260Z,18.80
2018-06-27T06:43:30.620Z,18.70
2018-06-27T06:46:11.335Z,18.70
2018-06-27T06:48:44.950Z,18.70
2018-06-27T06:51:13.188Z,18.70
2018-06-27T06:53:43.785Z,18.80
2018-06-27T06:56:15.421Z,18.80
2018-06-27T06:58:43.615Z,18.90
2018-06-27T07:01:17.472Z,18.90
2018-06-27T07:03:45.728Z,19.10
2018-06-27T07:06:15.438Z,19.10
2018-06-27T07:08:44.221Z,19.20
2018-06-27T07:11:12.537Z,19.10
2018-06-27T07:13:48.678Z,19.20
2018-06-27T07:16:20.794Z,19.10
2018-06-27T07:18:49.540Z,19.10
2018-06-27T07:21:17.848Z,19.10
2018-06-27T07:23:46.051Z,19.10
2018-06-27T07:26:26.548Z,19.10
2018-06-27T07:29:07.214Z,19.20
2018-06-27T07:31:35.908Z,19.30
2018-06-27T07:34:04.542Z,19.40
2018-06-27T07:36:36.899Z,19.40
2018-06-27T07:39:07.490Z,19.50
2018-06-27T07:41:47.725Z,19.60
2018-06-27T07:44:28.433Z,19.80
2018-06-27T07:46:56.594Z,19.80
2018-06-27T07:49:24.793Z,19.90
2018-06-27T07:51:52.967Z,20.00
2018-06-27T07:54:39.313Z,20.00
2018-06-27T07:57:20.013Z,20.10
2018-06-27T07:59:48.180Z,20.30
2018-06-27T08:02:16.405Z,20.30
2018-06-27T08:04:57.182Z,20.40
2018-06-27T08:07:25.451Z,20.50
2018-06-27T08:10:06.486Z,20.50
2018-06-27T08:12:35.238Z,20.50
2018-06-27T08:15:03.531Z,20.70
2018-06-27T08:17:41.366Z,20.80
2018-06-27T08:20:09.572Z,20.80
2018-06-27T08:22:40.089Z,20.80
2018-06-27T08:25:08.312Z,20.90
2018-06-27T08:27:37.547Z,21.00
2018-06-27T08:30:06.996Z,21.00
2018-06-27T08:32:48.117Z,21.20
2018-06-27T08:35:28.723Z,21.30
2018-06-27T08:38:09.450Z,21.40
2018-06-27T08:40:50.244Z,21.40
2018-06-27T08:43:30.610Z,21.30
2018-06-27T08:45:58.873Z,21.20
2018-06-27T08:48:39.079Z,21.20
2018-06-27T08:51:19.621Z,21.30
2018-06-27T08:54:00.286Z,21.50
2018-06-27T08:59:14.636Z,21.50
2018-06-27T09:01:55.101Z,21.60
2018-06-27T09:04:23.376Z,21.70
2018-06-27T09:07:03.650Z,21.90
2018-06-27T09:09:31.833Z,22.10
2018-06-27T09:12:11.998Z,22.20
2018-06-27T09:14:52.807Z,22.20
2018-06-27T09:17:33.677Z,22.10
2018-06-27T09:20:14.335Z,22.20
2018-06-27T09:22:42.524Z,22.20
2018-06-27T09:25:23.614Z,22.40
2018-06-27T09:27:53.033Z,22.40
2018-06-27T09:30:21.492Z,22.60
2018-06-27T09:33:01.992Z,22.70
2018-06-27T09:35:32.267Z,22.60
2018-06-27T09:38:12.689Z,22.60
2018-06-27T09:40:40.916Z,22.70
2018-06-27T09:43:09.109Z,22.80
2018-06-27T09:45:49.695Z,22.80
2018-06-27T09:48:30.226Z,23.00
2018-06-27T09:51:10.873Z,23.20
2018-06-27T09:53:52.060Z,23.00
2018-06-27T09:56:32.232Z,23.00
2018-06-27T09:59:00.441Z,22.90
2018-06-27T10:06:48.867Z,23.20
2018-06-27T10:09:17.048Z,23.50
2018-06-27T10:11:45.233Z,23.70
2018-06-27T10:14:26.036Z,23.90
2018-06-27T10:16:54.236Z,23.60
2018-06-27T10:19:28.101Z,23.70
2018-06-27T10:22:08.292Z,23.90
2018-06-27T10:24:48.917Z,24.20
2018-06-27T10:27:17.198Z,24.20
2018-06-27T10:29:45.467Z,24.00
2018-06-27T10:32:26.384Z,24.20
2018-06-27T10:34:54.754Z,24.30
2018-06-27T10:37:35.934Z,24.50
2018-06-27T10:40:16.490Z,24.80
2018-06-27T10:42:57.202Z,25.00
2018-06-27T10:45:37.749Z,25.60
2018-06-27T10:48:18.420Z,26.00
2018-06-27T10:50:46.663Z,26.60
2018-06-27T10:53:16.519Z,26.00
2018-06-27T10:55:46.364Z,26.90
2018-06-27T10:58:26.537Z,29.20
2018-06-27T11:01:07.543Z,29.70
2018-06-27T11:03:35.719Z,30.00
2018-06-27T11:06:16.950Z,31.60
2018-06-27T11:08:57.558Z,31.40
2018-06-27T11:11:25.953Z,32.60
2018-06-27T11:14:06.661Z,33.50
2018-06-27T11:16:35.181Z,33.90
2018-06-27T11:19:10.380Z,33.30
2018-06-27T11:21:38.665Z,32.90
2018-06-27T11:24:06.964Z,32.10
2018-06-27T11:26:38.210Z,30.50
2018-06-27T11:29:19.178Z,29.60
2018-06-27T11:31:59.738Z,28.90
2018-06-27T11:34:28.014Z,28.00
2018-06-27T11:36:56.205Z,27.70
2018-06-27T11:39:24.578Z,29.60
2018-06-27T11:41:52.928Z,32.20
2018-06-27T11:44:21.190Z,32.70
2018-06-27T11:46:49.531Z,32.80
2018-06-27T11:49:17.725Z,32.70
2018-06-27T11:51:45.919Z,34.20
2018-06-27T11:54:14.286Z,36.50
2018-06-27T11:56:44.501Z,37.80
2018-06-27T11:59:20.217Z,38.40
2018-06-27T12:01:48.470Z,38.70
2018-06-27T12:04:18.544Z,39.80
2018-06-27T12:09:15.823Z,38.80
2018-06-27T12:11:44.613Z,37.20
2018-06-27T12:14:20.231Z,36.40
2018-06-27T12:16:54.982Z,35.50
2018-06-27T12:19:23.346Z,34.70
2018-06-27T12:21:51.720Z,34.60
2018-06-27T12:24:20.416Z,34.80
2018-06-27T12:26:48.677Z,35.60
2018-06-27T12:29:17.639Z,35.50
2018-06-27T12:31:45.880Z,35.60
2018-06-27T12:36:47.901Z,34.60
2018-06-27T12:39:16.139Z,34.50
2018-06-27T12:41:56.227Z,34.30
2018-06-27T12:44:36.921Z,33.90
2018-06-27T12:47:17.731Z,33.20
2018-06-27T12:49:46.167Z,31.90
2018-06-27T12:52:26.294Z,31.20
2018-06-27T12:55:09.086Z,30.60
2018-06-27T12:57:49.613Z,30.40
2018-06-27T13:00:30.367Z,30.50
2018-06-27T13:03:11.029Z,30.30
2018-06-27T13:05:52.126Z,29.60
2018-06-27T13:08:32.685Z,29.60
2018-06-27T13:11:00.962Z,29.70
2018-06-27T13:13:41.182Z,29.70
2018-06-27T13:16:21.773Z,29.50
2018-06-27T13:19:02.746Z,28.90
2018-06-27T13:21:43.395Z,28.40
2018-06-27T13:24:24.408Z,28.00
2018-06-27T13:27:04.832Z,27.40
2018-06-27T13:29:45.501Z,27.30
2018-06-27T13:32:26.089Z,27.40
2018-06-27T13:35:06.886Z,27.50
2018-06-27T13:37:41.317Z,27.50
2018-06-27T13:40:11.786Z,27.40
2018-06-27T13:42:40.024Z,27.30
2018-06-27T13:45:20.597Z,27.50
2018-06-27T13:47:48.838Z,28.00
2018-06-27T13:50:16.998Z,28.30
2018-06-27T13:52:45.370Z,28.80
2018-06-27T13:55:25.949Z,28.50
2018-06-27T13:57:54.301Z,28.00
2018-06-27T14:00:22.698Z,27.60
2018-06-27T14:02:50.914Z,27.40
2018-06-27T14:05:32.057Z,27.40
2018-06-27T14:08:12.613Z,27.20
2018-06-27T14:10:53.279Z,27.10
2018-06-27T14:13:22.428Z,26.80
2018-06-27T14:15:50.753Z,26.70
2018-06-27T14:18:31.369Z,26.90
2018-06-27T14:21:12.101Z,26.90
2018-06-27T14:23:52.627Z,27.10
2018-06-27T14:28:54.362Z,26.50
2018-06-27T14:31:23.658Z,26.50
2018-06-27T14:34:03.885Z,26.30
2018-06-27T14:36:35.223Z,26.50
2018-06-27T14:39:15.443Z,26.70
2018-06-27T14:41:56.301Z,26.80
2018-06-27T14:44:37.010Z,26.60
2018-06-27T14:47:17.608Z,26.50
2018-06-27T14:49:49.853Z,26.50
2018-06-27T14:52:30.979Z,26.50
2018-06-27T14:54:59.380Z,26.60
2018-06-27T14:57:40.227Z,26.60
2018-06-27T15:03:06.666Z,26.40
2018-06-27T15:05:36.680Z,26.30
2018-06-27T15:08:17.342Z,26.40
2018-06-27T15:10:58.092Z,26.40
2018-06-27T15:13:38.719Z,26.30
2018-06-27T15:16:19.739Z,26.30
2018-06-27T15:18:52.027Z,26.40
2018-06-27T15:21:32.752Z,26.50
2018-06-27T15:24:13.249Z,26.30
2018-06-27T15:26:53.917Z,26.50
2018-06-27T15:29:34.628Z,26.40
2018-06-27T15:32:14.952Z,26.40
2018-06-27T15:34:56.374Z,26.70
2018-06-27T15:37:37.823Z,27.10
2018-06-27T15:40:18.970Z,27.90
2018-06-27T15:42:48.238Z,28.40
2018-06-27T15:45:29.051Z,28.40
2018-06-27T15:48:02.841Z,28.00
2018-06-27T15:50:31.005Z,27.80
2018-06-27T15:53:11.101Z,27.60
2018-06-27T15:55:40.856Z,27.40
2018-06-27T15:58:13.378Z,27.20
2018-06-27T16:00:53.714Z,27.10
2018-06-27T16:03:22.007Z,27.00
2018-06-27T16:05:50.195Z,27.00
2018-06-27T16:08:18.574Z,27.20
2018-06-27T16:10:47.782Z,27.50
2018-06-27T16:13:16.624Z,27.60
2018-06-27T16:15:49.044Z,27.70
2018-06-27T16:18:17.538Z,27.80
2018-06-27T16:20:45.895Z,27.90
2018-06-27T16:23:14.201Z,27.90
2018-06-27T16:25:45.602Z,28.00
2018-06-27T16:28:13.901Z,28.00
2018-06-27T16:30:42.193Z,27.60
2018-06-27T16:33:22.711Z,27.40
2018-06-27T16:35:51.042Z,27.50
2018-06-27T16:38:19.397Z,27.90
2018-06-27T16:40:47.757Z,27.80
2018-06-27T16:43:16.067Z,28.20
2018-06-27T16:45:44.459Z,29.40
2018-06-27T16:48:14.585Z,30.60
2018-06-27T16:50:42.848Z,30.70
2018-06-27T16:53:12.084Z,30.10
2018-06-27T16:55:40.328Z,30.30
2018-06-27T16:58:09.631Z,29.80
2018-06-27T17:00:37.872Z,29.30
2018-06-27T17:03:06.233Z,28.90
2018-06-27T17:05:47.062Z,29.20
2018-06-27T17:08:27.852Z,29.00
2018-06-27T17:11:08.593Z,29.40
2018-06-27T17:13:37.196Z,29.50
2018-06-27T17:16:06.908Z,29.20
2018-06-27T17:18:35.274Z,28.90
2018-06-27T17:21:15.703Z,28.60
2018-06-27T17:23:43.943Z,28.40
2018-06-27T17:26:14.108Z,28.00
2018-06-27T17:28:43.071Z,27.80
2018-06-27T17:31:23.887Z,27.40
2018-06-27T17:33:52.220Z,27.30
2018-06-27T17:36:20.691Z,27.30
2018-06-27T17:38:49.711Z,27.00
2018-06-27T17:41:30.807Z,26.70
2018-06-27T17:44:11.433Z,26.70
2018-06-27T17:46:52.059Z,26.80
2018-06-27T17:49:32.678Z,26.50
2018-06-27T17:52:13.031Z,26.30
2018-06-27T17:54:53.653Z,26.10
2018-06-27T17:57:25.981Z,25.90
2018-06-27T17:59:54.406Z,26.30
2018-06-27T18:02:34.875Z,27.10
2018-06-27T18:05:03.478Z,27.80
2018-06-27T18:07:31.871Z,27.80
2018-06-27T18:10:07.614Z,27.50
2018-06-27T18:12:37.342Z,27.30
2018-06-27T18:15:17.446Z,27.00
2018-06-27T18:17:58.184Z,26.90
2018-06-27T18:23:12.425Z,26.50
2018-06-27T18:28:14.134Z,26.30
2018-06-27T18:30:54.581Z,26.10
2018-06-27T18:33:35.203Z,26.00
2018-06-27T18:36:15.694Z,25.80
2018-06-27T18:38:56.539Z,25.70
2018-06-27T18:41:37.194Z,25.50
2018-06-27T18:44:05.480Z,25.30
2018-06-27T18:46:37.362Z,25.20
2018-06-27T18:49:05.807Z,25.00
2018-06-27T18:51:33.995Z,25.00
2018-06-27T18:54:02.246Z,25.00
2018-06-27T18:56:34.629Z,24.90
2018-06-27T18:59:15.655Z,24.90
2018-06-27T19:01:56.548Z,24.90
2018-06-27T19:04:37.081Z,25.00
2018-06-27T19:07:05.629Z,24.80
2018-06-27T19:09:46.450Z,24.70
2018-06-27T19:12:27.237Z,24.60
2018-06-27T19:14:56.198Z,24.70
2018-06-27T19:17:24.446Z,24.70
2018-06-27T19:20:05.515Z,24.70
2018-06-27T19:22:46.091Z,24.50
2018-06-27T19:25:26.869Z,24.50
2018-06-27T19:28:07.514Z,24.40
2018-06-27T19:30:35.753Z,24.40
2018-06-27T19:33:15.903Z,24.30
2018-06-27T19:35:56.599Z,24.30
2018-06-27T19:38:37.277Z,23.90
2018-06-27T19:41:06.727Z,23.70
2018-06-27T19:43:47.762Z,23.60
2018-06-27T19:49:02.825Z,23.30
2018-06-27T19:51:43.458Z,23.10
2018-06-27T19:54:24.027Z,23.10
2018-06-27T19:56:52.517Z,23.00
2018-06-27T19:59:33.320Z,22.90
2018-06-27T20:02:13.996Z,22.80
2018-06-27T20:04:54.608Z,22.80
2018-06-27T20:07:23.142Z,22.70
2018-06-27T20:10:03.953Z,22.60
2018-06-27T20:12:32.219Z,22.50
2018-06-27T20:15:13.403Z,22.40
2018-06-27T20:17:53.758Z,22.30
2018-06-27T20:20:34.596Z,22.40
2018-06-27T20:23:15.060Z,22.30
2018-06-27T20:25:43.316Z,22.20
2018-06-27T20:28:24.458Z,22.10
2018-06-27T20:31:05.274Z,22.00
2018-06-27T20:33:45.681Z,22.10
2018-06-27T20:36:26.283Z,22.00
2018-06-27T20:39:06.732Z,21.90
2018-06-27T20:41:47.268Z,22.00
2018-06-27T20:44:28.018Z,21.90
2018-06-27T20:46:56.335Z,22.00
2018-06-27T20:49:37.452Z,22.00
2018-06-27T20:52:18.030Z,22.00
2018-06-27T20:54:46.516Z,21.90
2018-06-27T20:57:27.637Z,21.70
2018-06-27T20:59:55.901Z,21.60
2018-06-27T21:02:24.342Z,21.60
2018-06-27T21:05:04.689Z,21.50
2018-06-27T21:07:32.937Z,21.40
2018-06-27T21:10:01.629Z,21.30
2018-06-27T21:12:30.386Z,21.30
2018-06-27T21:14:58.792Z,21.20
2018-06-27T21:17:39.262Z,21.20
2018-06-27T21:20:07.651Z,21.30
2018-06-27T21:22:48.858Z,21.40
2018-06-27T21:25:17.761Z,21.40
2018-06-27T21:27:52.008Z,21.20
2018-06-27T21:30:33.183Z,21.10
2018-06-27T21:33:13.766Z,21.10
2018-06-27T21:35:42.251Z,20.90
2018-06-27T21:38:10.899Z,20.90
2018-06-27T21:43:13.308Z,20.80
2018-06-27T21:45:41.526Z,20.80
2018-06-27T21:48:22.384Z,20.70
2018-06-27T21:50:50.601Z,20.80
2018-06-27T21:53:18.808Z,20.70
2018-06-27T21:55:47.020Z,20.70
2018-06-27T21:58:28.351Z,20.60
2018-06-27T22:00:56.537Z,20.40
2018-06-27T22:03:37.699Z,20.40
2018-06-27T22:06:05.951Z,20.40
2018-06-27T22:08:46.087Z,20.40
2018-06-27T22:11:26.758Z,20.40
2018-06-27T22:14:07.211Z,20.30
2018-06-27T22:16:35.474Z,20.30
2018-06-27T22:19:15.705Z,20.30
2018-06-27T22:21:54.351Z,20.20
2018-06-27T22:24:22.558Z,20.20
2018-06-27T22:27:03.139Z,20.20
2018-06-27T22:29:43.805Z,20.10
2018-06-27T22:32:13.026Z,20.10
2018-06-27T22:34:47.157Z,20.00
2018-06-27T22:37:15.557Z,20.00
2018-06-27T22:39:46.785Z,19.90
2018-06-27T22:42:15.043Z,19.90
2018-06-27T22:44:55.293Z,19.90
2018-06-27T22:47:26.486Z,20.00
2018-06-27T22:50:06.588Z,20.00
2018-06-27T22:52:34.767Z,20.00
2018-06-27T22:55:03.004Z,19.90
2018-06-27T22:57:43.947Z,19.80
2018-06-27T23:00:12.177Z,19.80
2018-06-27T23:02:40.364Z,19.70
2018-06-27T23:05:09.876Z,19.80
2018-06-27T23:07:38.292Z,19.70
2018-06-27T23:10:06.866Z,19.70
2018-06-27T23:12:47.573Z,19.70
2018-06-27T23:15:15.762Z,19.60
2018-06-27T23:17:43.984Z,19.60
2018-06-27T23:20:12.196Z,19.50
2018-06-27T23:22:52.537Z,19.60
2018-06-27T23:25:33.316Z,19.50
2018-06-27T23:28:13.932Z,19.50
2018-06-27T23:30:54.576Z,19.50
2018-06-27T23:33:22.783Z,19.50
2018-06-27T23:36:03.210Z,19.40
2018-06-27T23:38:31.415Z,19.50
2018-06-27T23:40:59.652Z,19.40
2018-06-27T23:43:40.507Z,19.40
2018-06-27T23:46:21.150Z,19.30
2018-06-27T23:49:01.669Z,19.30
2018-06-27T23:51:29.867Z,19.20
2018-06-27T23:56:44.731Z,19.20
2018-06-27T23:59:25.450Z,19.10
